aviador You're here:

KGKJ Decoded Metar

MEADVILLE in PA, USA
Report Time2018-05-28 08:53:00
UTC Time2018-05-28 09:47:45
Flight Rules vfr VFR
Wind190° at 05 kt
W.Decomp.*RWY 25: 3.1 kt HW 3.9 kt LCW
W.Rank190° ranks 1
Current wind is below 190° avg. (6.3)
Visibility9999 m
Phenomena:N/A
Clouds:N/A
CeilingNone
Temp19°C (ISA +7)
Dew Point19°C (100% RH)
QNH1015 hPa
Density Alt2,428 ft
Elevation1,404 ft
Report Wrong Elevation
Raw Report
KGKJ 280853Z AUTO 19005KT 10SM CLR 19/19 A2998 RMK AO2 SLP143
T01940189 56003=

Extra information for KGKJ:More info

Metar Taf Metar & Taf Last 4 Metars F.Rules Stats Wind Profile Meteogram Temp Stats Airport Information Weather charts Add Link Nearby VenuesMetar ALERT Operation Metar Decoded Social comments

AIRNAV info for KGKJ